Latest Weather Observations for Canterbury

IDN60901

Issued at 5:01 pm EDT Tuesday 26 March 2019 (issued every 10 minutes, with the page automatically refreshed every 10 minutes)

About weather observations | Map of Sydney area stations | Latest observations for Sydney area | Other Formats
Station Details ID: 066194 Name: CANTERBURY RACECOURSE AWS Lat: -33.91 Lon: 151.11 Height: 3.0 m
Data from the previous 72 hours. | See also: Recent months at Canterbury
Date/Time
EDT
Temp
°C
App
Temp
°C
Dew
Point
°C
Rel
Hum
%
Delta-T
°C
Wind Press
QNH
hPa
Press
MSL
hPa
Rain since
9am
mm
Dir  Spd
km/h
Gust
km/h
Spd
kts
Gust
kts
26/05:00pm 23.2 18.7 6.1 33 8.7 SSE 19 35 10 19 - - 0.0
26/04:30pm 25.2 20.7 2.0 22 11.1 W 15 22 8 12 - - 0.0
26/04:00pm 25.2 21.2 2.6 23 10.9 WSW 13 24 7 13 - - 0.0
26/03:30pm 24.8 20.1 1.0 21 11.1 WSW 15 22 8 12 - - 0.0
26/03:00pm 24.1 19.2 2.3 24 10.4 WSW 17 28 9 15 - - 0.0
26/02:30pm 24.4 19.2 2.5 24 10.5 WSW 19 30 10 16 - - 0.0
26/02:00pm 24.0 19.2 2.8 25 10.2 WSW 17 28 9 15 - - 0.0
26/01:30pm 23.3 18.4 2.2 25 10.0 WNW 17 26 9 14 - - 0.0
26/01:00pm 23.0 17.7 1.9 25 9.9 WSW 19 32 10 17 - - 0.0
26/12:30pm 22.2 17.1 3.3 29 9.1 W 19 35 10 19 - - 0.0
26/12:00pm 22.0 17.3 5.0 33 8.4 WSW 19 30 10 16 - - 0.0
26/11:30am 22.0 18.8 7.0 38 7.7 W 13 20 7 11 - - 0.0
26/11:00am 21.5 18.1 7.7 41 7.2 WSW 15 28 8 15 - - 0.0
26/10:30am 20.5 16.4 6.1 39 7.2 SW 17 24 9 13 - - 0.0
26/10:00am 20.2 16.4 5.8 39 7.1 WSW 15 24 8 13 - - 0.0
26/09:30am 19.5 15.5 6.6 43 6.5 WSW 17 28 9 15 - - 0.0
26/09:00am 18.7 14.7 6.5 45 6.1 WSW 17 32 9 17 - - 0.2
26/08:30am 18.2 14.2 6.7 47 5.7 WSW 17 24 9 13 - - 0.2
26/08:00am 17.5 14.8 7.5 52 5.0 WSW 11 20 6 11 - - 0.2
26/07:30am 17.0 14.1 8.2 56 4.5 WSW 13 20 7 11 - - 0.2
26/07:00am 16.9 14.8 8.3 57 4.4 WSW 9 13 5 7 - - 0.2
26/06:30am 16.9 14.9 8.8 59 4.2 WSW 9 17 5 9 - - 0.2
26/06:00am 17.1 15.6 9.3 60 4.1 WSW 7 11 4 6 - - 0.2
26/05:30am 17.6 16.3 9.8 60 4.1 WSW 7 13 4 7 - - 0.2
26/05:00am 18.4 16.7 9.7 57 4.6 WSW 9 19 5 10 - - 0.2
26/04:30am 19.0 16.9 9.8 55 4.9 WSW 11 15 6 8 - - 0.2
26/04:00am 19.9 17.9 10.0 53 5.3 WSW 11 19 6 10 - - 0.2
26/03:30am 20.3 18.3 10.1 52 5.5 WSW 11 19 6 10 - - 0.2
26/03:00am 20.5 17.6 9.7 50 5.8 WSW 15 20 8 11 - - 0.2
26/02:30am 20.7 17.8 9.6 49 5.9 SW 15 22 8 12 - - 0.2
26/02:00am 20.6 18.8 10.7 53 5.4 WSW 11 17 6 9 - - 0.2
26/01:30am 20.8 19.0 12.0 57 4.9 WSW 13 19 7 10 - - 0.2
26/01:00am 20.1 21.5 16.3 79 2.3 W 4 11 2 6 - - 0.2
26/12:30am 20.1 21.1 16.3 79 2.3 WNW 6 7 3 4 - - 0.2
26/12:00am 19.9 21.6 16.3 80 2.2 NNW 2 9 1 5 - - 0.2
 
Date/Time
EDT
Temp
°C
App
Temp
°C
Dew
Point
°C
Rel
Hum
%
Delta-T
°C
Wind Press
QNH
hPa
Press
MSL
hPa
Rain since
9am
mm
Dir  Spd
km/h
Gust
km/h
Spd
kts
Gust
kts
25/11:30pm 20.0 21.7 16.2 79 2.3 N 2 9 1 5 - - 0.2
25/11:00pm 20.1 21.7 15.9 77 2.5 NW 2 9 1 5 - - 0.2
25/10:30pm 21.0 20.3 15.5 71 3.3 WSW 13 20 7 11 - - 0.2
25/10:00pm 22.5 21.2 14.9 62 4.5 WSW 15 24 8 13 - - 0.2
25/09:30pm 22.6 21.4 16.2 67 3.9 SW 17 24 9 13 - - 0.2
25/09:00pm 24.1 23.4 17.4 66 4.2 SW 17 30 9 16 - - 0.2
25/08:30pm 23.5 24.8 17.5 69 3.7 N 7 9 4 5 - - 0.2
25/08:00pm 24.0 24.9 17.5 67 4.0 NNW 9 15 5 8 - - 0.2
25/07:30pm 24.5 24.6 17.5 65 4.4 N 13 19 7 10 - - 0.2
25/07:00pm 24.3 25.8 17.5 66 4.2 NNW 6 11 3 6 - - 0.2
25/06:30pm 25.1 25.7 17.6 63 4.7 NNW 11 17 6 9 - - 0.2
25/06:00pm 25.5 25.6 17.4 61 5.1 NNW 13 20 7 11 - - 0.2
25/05:30pm 25.8 25.4 17.2 59 5.4 NNW 15 22 8 12 - - 0.2
25/05:00pm 26.2 24.8 17.0 57 5.7 NNW 20 30 11 16 - - 0.2
25/04:30pm 26.0 25.0 17.9 61 5.1 NNW 20 32 11 17 - - 0.2
25/04:00pm 25.8 25.8 18.0 62 4.9 NNW 15 24 8 13 - - 0.2
25/03:30pm 25.8 25.3 17.7 61 5.1 NNW 17 24 9 13 - - 0.2
25/03:00pm 25.6 25.5 17.8 62 4.9 NNW 15 26 8 14 - - 0.2
25/02:30pm 24.9 23.9 17.6 64 4.6 NNW 19 30 10 16 - - 0.2
25/02:00pm 24.5 23.9 17.5 65 4.4 NW 17 26 9 14 - - 0.2
25/01:30pm 23.8 23.7 17.8 69 3.7 NNW 15 32 8 17 - - 0.2
25/01:00pm 23.1 22.6 17.8 72 3.3 NNW 17 28 9 15 - - 0.2
25/12:30pm 22.3 22.7 18.1 77 2.6 NW 13 20 7 11 - - 0.2
25/12:00pm 21.8 22.0 17.6 77 2.6 NW 13 20 7 11 - - 0.2
25/11:30am 21.7 21.1 17.5 77 2.6 NNW 17 28 9 15 - - 0.2
25/11:00am 21.2 19.9 17.2 78 2.4 NNW 20 35 11 19 - - 0.2
25/10:30am 21.1 20.2 16.9 77 2.6 NW 17 24 9 13 - - 0.2
25/10:00am 20.6 20.5 17.0 80 2.2 NW 13 22 7 12 - - 0.2
25/09:30am 20.2 19.6 16.6 80 2.2 NNW 15 22 8 12 - - 0.0
25/09:00am 20.0 19.1 16.8 82 1.9 NNW 17 32 9 17 - - 3.0
25/08:30am 19.8 19.7 17.0 84 1.7 NNW 13 19 7 10 - - 2.8
25/08:00am 20.1 20.5 17.3 84 1.7 NNW 11 20 6 11 - - 2.6
25/07:30am 20.4 20.6 16.8 80 2.2 NW 11 19 6 10 - - 2.2
25/07:00am 21.0 21.0 17.2 79 2.3 WNW 13 22 7 12 - - 2.2
25/06:30am 22.5 21.6 16.8 70 3.5 WNW 17 28 9 15 - - 1.4
25/06:00am 22.5 23.3 18.1 76 2.7 WSW 11 19 6 10 - - 1.4
25/05:30am 22.2 23.8 19.2 83 1.9 WSW 9 17 5 9 - - 1.2
25/05:00am 20.7 24.0 19.2 91 0.9 CALM 0 0 0 0 - - 1.2
25/04:30am 20.6 23.5 18.2 86 1.5 CALM 0 0 0 0 - - 1.2
25/04:00am 21.7 25.1 19.4 87 1.5 CALM 0 0 0 0 - - 1.2
25/03:30am 21.4 23.7 19.5 89 1.2 NW 6 9 3 5 - - 1.2
25/03:00am 20.5 23.4 18.3 87 1.4 CALM 0 0 0 0 - - 1.2
25/02:30am 21.1 24.2 18.7 86 1.5 CALM 0 0 0 0 - - 1.2
25/02:00am 21.3 24.0 18.7 85 1.6 N 2 6 1 3 - - 1.2
25/01:30am 21.9 23.8 18.5 81 2.1 NNW 6 7 3 4 - - 1.2
25/01:00am 21.8 24.8 18.4 81 2.1 CALM 0 6 0 3 - - 1.2
25/12:30am 22.1 24.0 18.5 80 2.3 NNW 6 9 3 5 - - 1.2
25/12:00am 22.5 24.2 18.5 78 2.5 N 7 11 4 6 - - 1.2
 
Date/Time
EDT
Temp
°C
App
Temp
°C
Dew
Point
°C
Rel
Hum
%
Delta-T
°C
Wind Press
QNH
hPa
Press
MSL
hPa
Rain since
9am
mm
Dir  Spd
km/h
Gust
km/h
Spd
kts
Gust
kts
24/11:30pm 22.8 24.3 18.1 75 2.9 N 7 9 4 5 - - 1.2
24/11:00pm 22.7 24.1 17.8 74 3.0 N 7 11 4 6 - - 1.2
24/10:30pm 22.7 23.9 18.3 76 2.8 N 9 15 5 8 - - 1.2
24/10:00pm 22.3 25.6 20.0 87 1.5 NNW 2 6 1 3 - - 1.2
24/09:30pm 22.1 24.6 20.2 89 1.2 NNW 7 9 4 5 - - 1.2
24/09:00pm 21.9 25.9 20.5 92 0.9 CALM 0 0 0 0 - - 1.2
24/08:30pm 21.7 24.8 20.2 91 1.0 NE 4 7 2 4 - - 1.2
24/08:00pm 21.7 25.4 20.0 90 1.1 CALM 0 0 0 0 - - 1.2
24/07:30pm 21.9 25.4 19.6 87 1.5 CALM 0 0 0 0 - - 1.2
24/07:00pm 22.3 24.2 18.9 81 2.1 ESE 7 11 4 6 - - 1.2
24/06:30pm 23.0 26.7 20.0 83 1.9 CALM 0 0 0 0 - - 1.0
24/06:00pm 24.1 26.8 18.7 72 3.4 SSE 2 7 1 4 - - 0.4
24/05:30pm 25.8 26.6 17.4 59 5.2 SE 9 15 5 8 - - 0.0
24/05:00pm 26.6 27.0 18.2 60 5.3 SE 13 22 7 12 - - 0.0
24/04:30pm 26.1 26.1 19.0 65 4.5 SE 17 24 9 13 - - 0.0
24/04:00pm 26.6 27.4 20.7 70 3.9 SE 17 24 9 13 - - 0.0
24/03:30pm 27.5 27.8 20.3 65 4.7 SE 19 28 10 15 - - 0.0
24/03:00pm 27.5 27.8 20.8 67 4.4 SE 20 32 11 17 - - 0.0
24/02:30pm 27.7 27.8 20.3 64 4.9 SE 20 26 11 14 - - 0.0
24/02:00pm 27.7 27.5 20.5 65 4.7 ESE 22 32 12 17 - - 0.0
24/01:30pm 28.7 28.0 20.2 60 5.6 ESE 24 32 13 17 - - 0.0
24/01:00pm 28.8 28.2 19.7 58 5.9 SE 22 32 12 17 - - 0.0
24/12:30pm 31.2 33.0 18.2 46 8.4 SSW 6 13 3 7 - - 0.0
24/12:00pm 29.8 31.2 18.6 51 7.2 WSW 9 19 5 10 - - 0.0
24/11:30am 28.6 28.9 18.7 55 6.4 WSW 15 22 8 12 - - 0.0
24/11:00am 27.8 29.0 19.1 59 5.6 WNW 11 17 6 9 - - 0.0
24/10:30am 26.5 27.7 19.1 64 4.8 W 11 19 6 10 - - 0.0
24/10:00am 25.8 27.7 19.7 69 3.9 W 9 17 5 9 - - 0.0
24/09:30am 23.9 25.8 19.8 78 2.6 WNW 9 13 5 7 - - 0.0
24/09:00am 22.4 24.5 20.1 87 1.5 WNW 9 17 5 9 - - 0.2
24/08:30am 21.5 23.8 19.8 90 1.1 NW 7 11 4 6 - - 0.2
24/08:00am 21.2 22.9 19.3 89 1.2 NW 9 11 5 6 - - 0.2
24/07:30am 21.1 23.1 19.2 89 1.2 WNW 7 13 4 7 - - 0.2
24/07:00am 21.0 22.6 19.1 89 1.2 WNW 9 15 5 8 - - 0.2
24/06:30am 20.8 23.0 19.1 90 1.1 WNW 6 11 3 6 - - 0.2
24/06:00am 20.9 23.0 19.0 89 1.2 NW 6 9 3 5 - - 0.2
24/05:30am 21.0 24.2 18.9 88 1.3 CALM 0 0 0 0 - - 0.2
24/05:00am 21.1 23.9 18.9 87 1.4 W 2 7 1 4 - - 0.2
24/04:30am 21.0 24.1 18.6 86 1.5 CALM 0 0 0 0 - - 0.2
24/04:00am 21.4 23.4 18.8 85 1.6 WNW 6 9 3 5 - - 0.2
24/03:30am 21.2 22.8 19.1 88 1.3 NNW 9 13 5 7 - - 0.2
24/03:00am 20.9 23.0 19.4 91 1.0 NNW 7 13 4 7 - - 0.2
24/02:30am 20.7 22.7 19.2 91 0.9 NNW 7 11 4 6 - - 0.2
24/02:00am 20.8 22.9 19.3 91 0.9 NW 7 9 4 5 - - 0.2
24/01:30am 21.0 23.2 19.3 90 1.1 NW 6 11 3 6 - - 0.2
24/01:00am 21.4 23.2 19.5 89 1.2 WNW 9 15 5 8 - - 0.2
24/12:30am 21.5 23.7 19.6 89 1.2 NW 7 15 4 8 - - 0.2
24/12:00am 21.7 24.1 19.6 88 1.3 WNW 6 9 3 5 - - 0.2
 
Date/Time
EDT
Temp
°C
App
Temp
°C
Dew
Point
°C
Rel
Hum
%
Delta-T
°C
Wind Press
QNH
hPa
Press
MSL
hPa
Rain since
9am
mm
Dir  Spd
km/h
Gust
km/h
Spd
kts
Gust
kts
23/11:30pm 21.9 24.3 19.6 87 1.5 NW 6 11 3 6 - - 0.2
23/11:00pm 21.9 24.2 19.8 88 1.3 NW 7 11 4 6 - - 0.2
23/10:30pm 21.8 25.0 19.7 88 1.3 NNW 2 9 1 5 - - 0.2
23/10:00pm 22.2 24.1 19.7 86 1.6 NW 9 11 5 6 - - 0.2
23/09:30pm 22.4 24.1 20.1 87 1.5 N 11 15 6 8 - - 0.2
23/09:00pm 22.3 25.7 20.2 88 1.4 ENE 2 7 1 4 - - 0.0
23/08:30pm 22.6 25.5 19.9 85 1.7 E 4 7 2 4 - - 0.0
23/08:00pm 22.6 24.5 19.8 84 1.8 NNE 9 15 5 8 - - 0.0
23/07:30pm 23.5 25.6 19.4 78 2.6 SSW 7 11 4 6 - - 0.0
23/07:00pm 23.5 25.0 19.0 76 2.9 NE 9 17 5 9 - - 0.0
23/06:30pm 23.6 25.1 18.9 75 3.0 E 9 13 5 7 - - 0.0
23/06:00pm 24.0 25.3 18.4 71 3.5 E 9 15 5 8 - - 0.0
23/05:30pm 24.2 25.6 18.6 71 3.5 ENE 9 15 5 8 - - 0.0

Latest Capital City Observations: Canberra | Sydney | Melbourne | Brisbane | Adelaide | Perth | Hobart | Darwin

Other formats

Comma delimited format used in spreadsheet applications
http://www.bom.gov.au/fwo/IDN60901/IDN60901.94766.axf

JavaScript Object Notation format (JSON) in row-major order
http://www.bom.gov.au/fwo/IDN60901/IDN60901.94766.json

Data quality

Most of these data are generated automatically and are frequently updated. Quality checks on data are not normally performed. It is possible for incorrect values to appear. Refer to information at About Latest Weather Observations and please check the disclaimer before using these data.